Time;durP1;ratioP1;P1;durP2;ratioP2;P2;SDS_P1;SDS_P2;PMS_P1;PMS_P2;Temp;Humidity;BMP_temperature;BMP_pressure;BME280_temperature;BME280_humidity;BME280_pressure;Samples;Min_cycle;Max_cycle;Signal;HPM_P1;HPM_P2
2022/05/05 00:01:45;;;;;;;2.03;1.93;;;12.10;99.90;;;;;;5050806;28;20242;-46
2022/05/05 00:04:12;;;;;;;1.83;1.73;;;12.10;99.90;;;;;;5051375;28;20201;-47
2022/05/05 00:06:43;;;;;;;1.90;1.80;;;12.10;99.90;;;;;;5050963;28;20209;-47
2022/05/05 00:09:11;;;;;;;1.40;1.30;;;12.00;99.90;;;;;;5039401;28;20273;-47
2022/05/05 00:14:27;;;;;;;2.20;1.80;;;12.00;99.90;;;;;;5049452;28;20213;-47
2022/05/05 00:16:57;;;;;;;1.80;1.70;;;12.00;99.90;;;;;;5047449;28;20659;-47
2022/05/05 00:19:24;;;;;;;2.20;2.10;;;11.90;99.90;;;;;;5050916;28;20315;-47
2022/05/05 00:21:51;;;;;;;1.97;1.87;;;11.90;99.90;;;;;;5051691;28;20279;-46
2022/05/05 00:24:20;;;;;;;2.53;2.43;;;11.90;99.90;;;;;;5052262;28;20246;-47
2022/05/05 00:26:47;;;;;;;2.00;1.87;;;11.90;99.90;;;;;;5051234;28;20198;-47
2022/05/05 00:29:15;;;;;;;1.93;1.83;;;11.90;99.90;;;;;;5050681;28;20594;-47
2022/05/05 00:31:43;;;;;;;2.27;2.17;;;11.90;99.90;;;;;;5050885;28;20225;-47
2022/05/05 00:34:10;;;;;;;2.73;2.53;;;11.80;99.90;;;;;;5043677;28;20197;-47
2022/05/05 00:36:37;;;;;;;2.17;1.97;;;11.80;99.90;;;;;;5049781;28;20824;-47
2022/05/05 00:39:05;;;;;;;2.53;2.33;;;11.80;99.90;;;;;;5050805;28;20266;-46
2022/05/05 00:41:40;;;;;;;2.00;1.90;;;11.80;99.90;;;;;;5050549;28;20208;-47
2022/05/05 00:44:08;;;;;;;2.27;2.17;;;11.80;99.90;;;;;;5050655;28;20291;-47
2022/05/05 00:46:35;;;;;;;2.67;2.57;;;11.90;99.90;;;;;;5051135;28;20442;-46
2022/05/05 00:49:04;;;;;;;2.50;2.40;;;11.90;99.90;;;;;;5050445;28;20285;-47
2022/05/05 00:51:31;;;;;;;1.60;1.60;;;12.00;99.90;;;;;;5051542;28;20262;-46
2022/05/05 00:53:58;;;;;;;2.77;2.57;;;12.00;99.90;;;;;;5050539;28;20213;-46
2022/05/05 00:56:26;;;;;;;2.40;2.30;;;12.00;99.90;;;;;;5051486;28;20201;-46
2022/05/05 00:58:57;;;;;;;2.63;2.53;;;11.90;99.90;;;;;;5049616;28;20200;-47
2022/05/05 01:01:25;;;;;;;2.47;2.33;;;11.90;99.90;;;;;;5051404;28;20197;-47
2022/05/05 01:03:52;;;;;;;2.80;2.60;;;11.80;99.90;;;;;;5051622;28;20203;-46
2022/05/05 01:06:19;;;;;;;2.37;2.20;;;11.80;99.90;;;;;;5049771;28;20657;-47
2022/05/05 01:08:47;;;;;;;2.87;2.77;;;11.70;99.90;;;;;;5048113;28;20252;-46
2022/05/05 01:11:14;;;;;;;2.30;2.10;;;11.60;99.90;;;;;;5051169;28;20305;-47
2022/05/05 01:13:43;;;;;;;2.23;2.13;;;11.50;99.90;;;;;;5049697;28;20283;-47
2022/05/05 01:16:12;;;;;;;2.23;2.13;;;11.40;99.90;;;;;;5042663;28;20201;-46
2022/05/05 01:18:40;;;;;;;2.80;2.70;;;11.40;99.90;;;;;;5053917;28;20229;-47
2022/05/05 01:21:10;;;;;;;3.07;2.87;;;11.40;99.90;;;;;;5092113;22;20317;-53
2022/05/05 01:23:38;;;;;;;2.10;1.93;;;11.50;99.90;;;;;;5073222;28;20201;-52
2022/05/05 01:28:51;;;;;;;3.00;2.80;;;11.50;99.90;;;;;;5074056;28;20206;-52
2022/05/05 01:31:18;;;;;;;2.37;2.27;;;11.40;99.90;;;;;;5071839;28;20645;-53
2022/05/05 01:33:45;;;;;;;3.30;3.10;;;11.50;99.90;;;;;;5073491;28;20216;-52
2022/05/05 01:36:12;;;;;;;4.33;4.07;;;11.60;99.90;;;;;;5075501;28;20199;-52
2022/05/05 01:38:43;;;;;;;2.90;2.80;;;11.60;99.90;;;;;;5074474;28;20194;-52
2022/05/05 01:41:11;;;;;;;3.00;2.90;;;11.60;99.90;;;;;;5073357;28;20224;-52
2022/05/05 01:43:39;;;;;;;2.57;2.33;;;11.60;99.90;;;;;;5075124;28;20201;-52
2022/05/05 01:46:07;;;;;;;2.43;2.20;;;11.50;99.90;;;;;;5075197;28;20269;-53
2022/05/05 01:48:34;;;;;;;2.97;2.87;;;11.40;99.90;;;;;;5073757;28;20263;-52
2022/05/05 01:51:02;;;;;;;2.40;2.20;;;11.30;99.90;;;;;;5074622;28;20743;-52
2022/05/05 01:53:36;;;;;;;2.73;2.63;;;11.30;99.90;;;;;;5072494;28;20208;-52
2022/05/05 01:56:07;;;;;;;3.23;3.03;;;11.30;99.90;;;;;;5073501;28;20197;-53
2022/05/05 01:58:34;;;;;;;2.67;2.03;;;11.30;99.90;;;;;;5074749;28;20283;-53
2022/05/05 02:01:01;;;;;;;2.73;2.63;;;11.30;99.90;;;;;;5074554;28;20308;-53
2022/05/05 02:03:28;;;;;;;3.23;2.40;;;11.30;99.90;;;;;;5073593;28;20237;-52
2022/05/05 02:05:55;;;;;;;2.90;2.73;;;11.30;99.90;;;;;;5073877;28;20279;-52
2022/05/05 02:08:22;;;;;;;2.83;2.63;;;11.30;99.90;;;;;;5074395;28;20216;-52
2022/05/05 02:10:49;;;;;;;2.90;2.63;;;11.30;99.90;;;;;;5074514;28;20228;-53
2022/05/05 02:13:18;;;;;;;5.30;2.97;;;11.40;99.90;;;;;;5073575;28;20197;-52
2022/05/05 02:15:45;;;;;;;3.00;2.67;;;11.40;99.90;;;;;;5072048;28;20771;-53
2022/05/05 02:18:13;;;;;;;3.43;3.23;;;11.50;99.90;;;;;;5071307;28;20234;-52
2022/05/05 02:20:41;;;;;;;2.60;2.40;;;11.50;99.90;;;;;;5073950;28;20225;-53
2022/05/05 02:23:09;;;;;;;2.60;2.50;;;11.50;99.90;;;;;;5073273;28;20571;-52
2022/05/05 02:25:36;;;;;;;3.07;2.87;;;11.50;99.90;;;;;;5074137;28;20216;-53
2022/05/05 02:28:04;;;;;;;2.83;2.73;;;11.50;99.90;;;;;;5072450;28;20203;-53
2022/05/05 02:30:32;;;;;;;2.33;2.13;;;11.50;99.90;;;;;;5072483;28;20259;-53
2022/05/05 02:32:59;;;;;;;2.63;2.43;;;11.40;99.90;;;;;;5073751;28;20208;-53
2022/05/05 02:35:26;;;;;;;2.33;2.33;;;11.40;99.90;;;;;;5073207;28;20269;-53
2022/05/05 02:40:40;;;;;;;2.13;1.97;;;11.20;99.90;;;;;;5071925;28;20216;-53
2022/05/05 02:43:08;;;;;;;3.37;3.07;;;11.10;99.90;;;;;;5073801;28;20205;-52
2022/05/05 02:45:37;;;;;;;3.07;2.97;;;11.00;99.90;;;;;;5071830;28;20206;-52
2022/05/05 02:48:05;;;;;;;2.80;2.63;;;10.90;99.90;;;;;;5073155;28;20292;-52
2022/05/05 02:50:32;;;;;;;3.10;2.83;;;10.80;99.90;;;;;;5073568;28;20318;-52
2022/05/05 02:52:59;;;;;;;2.60;2.47;;;10.70;99.90;;;;;;5072760;28;20200;-53
2022/05/05 02:55:26;;;;;;;2.57;2.33;;;10.70;99.90;;;;;;5073160;28;20278;-52
2022/05/05 02:57:53;;;;;;;2.60;2.47;;;10.60;99.90;;;;;;5073536;28;20193;-52
2022/05/05 03:00:21;;;;;;;2.77;2.57;;;10.50;99.90;;;;;;5073668;28;20221;-52
2022/05/05 03:02:50;;;;;;;2.80;2.70;;;10.50;99.90;;;;;;5073573;28;20287;-53
2022/05/05 03:05:17;;;;;;;3.37;3.10;;;10.40;99.90;;;;;;5072314;28;20205;-52
2022/05/05 03:07:44;;;;;;;3.33;3.13;;;10.40;99.90;;;;;;5072539;28;20211;-52
2022/05/05 03:10:13;;;;;;;2.50;2.40;;;10.40;99.90;;;;;;5053390;28;20232;-52
2022/05/05 03:12:40;;;;;;;3.30;3.10;;;10.40;99.90;;;;;;5053348;28;20204;-52
2022/05/05 03:15:08;;;;;;;3.90;3.70;;;10.40;99.90;;;;;;5053460;28;20209;-52
2022/05/05 03:17:36;;;;;;;3.67;3.40;;;10.50;99.90;;;;;;5053050;28;20245;-53
2022/05/05 03:20:05;;;;;;;3.30;3.10;;;10.50;99.90;;;;;;5072896;28;20243;-52
2022/05/05 03:22:32;;;;;;;3.50;3.30;;;10.40;99.90;;;;;;5072854;28;20200;-53
2022/05/05 03:24:59;;;;;;;3.03;2.83;;;10.40;99.90;;;;;;5073679;28;20211;-52
2022/05/05 03:27:26;;;;;;;3.63;3.33;;;10.40;99.90;;;;;;5073190;28;20203;-52
2022/05/05 03:29:53;;;;;;;2.97;2.87;;;10.50;99.90;;;;;;5071182;28;20292;-52
2022/05/05 03:32:20;;;;;;;3.47;3.27;;;10.50;99.90;;;;;;5069126;28;20547;-52
2022/05/05 03:34:47;;;;;;;2.50;2.30;;;10.50;99.90;;;;;;5072289;28;20211;-52
2022/05/05 03:37:16;;;;;;;2.77;2.67;;;10.50;99.90;;;;;;5072972;28;20201;-52
2022/05/05 03:39:43;;;;;;;3.37;3.07;;;10.50;99.90;;;;;;5072848;28;20285;-52
2022/05/05 03:42:10;;;;;;;2.63;2.53;;;10.50;99.90;;;;;;5071962;28;20314;-52
2022/05/05 03:44:37;;;;;;;2.23;2.03;;;10.50;99.90;;;;;;5072669;28;20740;-53
2022/05/05 03:47:04;;;;;;;2.70;2.60;;;10.50;99.90;;;;;;5076465;28;20218;-52
2022/05/05 03:49:31;;;;;;;2.90;2.70;;;10.50;99.90;;;;;;5075305;28;20746;-52
2022/05/05 03:51:58;;;;;;;3.10;2.20;;;10.50;99.90;;;;;;5070082;28;20591;-52
2022/05/05 03:54:27;;;;;;;4.07;2.10;;;10.50;99.90;;;;;;5071456;28;20249;-52
2022/05/05 03:56:54;;;;;;;2.80;2.70;;;10.50;99.90;;;;;;5067621;28;20203;-53
2022/05/05 03:59:22;;;;;;;2.37;2.27;;;10.50;99.90;;;;;;5077757;28;20204;-52
2022/05/05 04:01:49;;;;;;;2.63;2.40;;;10.50;99.90;;;;;;5071837;28;20231;-52
2022/05/05 04:04:17;;;;;;;2.87;2.50;;;10.50;99.90;;;;;;5072195;28;20210;-52
2022/05/05 04:06:47;;;;;;;2.93;2.73;;;10.50;99.90;;;;;;5071274;28;20227;-53
2022/05/05 04:09:14;;;;;;;2.70;2.50;;;10.50;99.90;;;;;;5062899;28;20199;-52
2022/05/05 04:11:45;;;;;;;3.13;2.23;;;10.50;99.90;;;;;;5071499;28;20226;-53
2022/05/05 04:14:12;;;;;;;3.07;2.87;;;10.50;99.90;;;;;;5071769;28;20475;-52
2022/05/05 04:16:39;;;;;;;3.50;3.20;;;10.40;99.90;;;;;;5069789;28;20591;-52
2022/05/05 04:19:06;;;;;;;4.93;2.93;;;10.40;99.90;;;;;;5060575;28;20203;-53
2022/05/05 04:21:35;;;;;;;3.17;2.97;;;10.50;99.90;;;;;;5069445;28;20230;-52
2022/05/05 04:24:03;;;;;;;3.40;3.10;;;10.50;99.90;;;;;;5071676;28;20203;-52
2022/05/05 04:26:30;;;;;;;3.27;3.00;;;10.50;99.90;;;;;;5069644;28;20199;-53
2022/05/05 04:28:59;;;;;;;3.30;2.47;;;10.40;99.90;;;;;;5071425;28;20195;-53
2022/05/05 04:31:29;;;;;;;3.70;2.83;;;10.40;99.90;;;;;;5071851;28;20233;-52
2022/05/05 04:33:57;;;;;;;3.20;3.00;;;10.40;99.90;;;;;;5068321;28;20282;-52
2022/05/05 04:36:24;;;;;;;2.93;2.83;;;10.40;99.90;;;;;;5071643;28;20203;-52
2022/05/05 04:38:51;;;;;;;3.17;2.97;;;10.40;99.90;;;;;;5071154;28;20261;-52
2022/05/05 04:41:18;;;;;;;3.00;2.87;;;10.40;99.90;;;;;;5070078;28;20258;-52
2022/05/05 04:43:45;;;;;;;5.80;3.30;;;10.40;99.90;;;;;;5069642;28;20208;-52
2022/05/05 04:46:13;;;;;;;3.83;3.53;;;10.40;99.90;;;;;;5071293;28;20294;-52
2022/05/05 04:48:40;;;;;;;4.07;3.77;;;10.50;99.90;;;;;;5063767;28;20577;-52
2022/05/05 04:51:07;;;;;;;3.93;3.53;;;10.50;99.90;;;;;;5069602;28;20636;-52
2022/05/05 04:53:34;;;;;;;5.17;4.87;;;10.50;99.90;;;;;;5068908;28;20282;-52
2022/05/05 04:56:02;;;;;;;4.73;4.33;;;10.50;99.90;;;;;;5065359;28;20212;-52
2022/05/05 04:58:29;;;;;;;4.37;4.07;;;10.50;99.90;;;;;;5069430;28;20273;-52
2022/05/05 05:00:56;;;;;;;4.57;3.73;;;10.50;99.90;;;;;;5066528;28;20227;-52
2022/05/05 05:03:35;;;;;;;3.83;3.63;;;10.60;99.90;;;;;;5068517;28;20291;-52
2022/05/05 05:06:03;;;;;;;4.40;4.07;;;10.70;99.90;;;;;;5068854;28;20207;-52
2022/05/05 05:08:30;;;;;;;5.00;4.50;;;10.80;99.90;;;;;;5068360;28;20722;-52
2022/05/05 05:10:58;;;;;;;3.70;3.50;;;10.80;99.90;;;;;;5065582;28;20296;-53
2022/05/05 05:13:25;;;;;;;4.30;4.10;;;10.90;99.90;;;;;;5069881;28;20196;-53
2022/05/05 05:15:52;;;;;;;5.33;4.90;;;10.90;99.90;;;;;;5067148;28;20204;-52
2022/05/05 05:18:19;;;;;;;4.13;3.63;;;11.00;99.90;;;;;;5069019;28;20260;-52
2022/05/05 05:20:48;;;;;;;7.80;4.60;;;11.10;99.90;;;;;;5067853;28;20284;-53
2022/05/05 05:23:15;;;;;;;4.53;4.33;;;11.20;99.90;;;;;;5069901;28;20193;-52
2022/05/05 05:25:42;;;;;;;4.87;4.57;;;11.30;99.90;;;;;;5065054;28;20199;-52
2022/05/05 05:28:09;;;;;;;4.13;3.93;;;11.40;99.90;;;;;;5066416;28;20249;-52
2022/05/05 05:30:37;;;;;;;5.50;5.00;;;11.50;99.90;;;;;;5066490;28;20643;-53
2022/05/05 05:33:04;;;;;;;7.53;5.83;;;11.60;99.90;;;;;;5069263;28;20688;-52
2022/05/05 05:35:31;;;;;;;5.97;5.47;;;11.70;99.90;;;;;;5065513;28;20200;-53
2022/05/05 05:38:00;;;;;;;7.80;5.50;;;11.90;99.90;;;;;;5068321;28;20204;-52
2022/05/05 05:40:27;;;;;;;5.83;5.23;;;12.00;99.90;;;;;;5069202;28;20217;-53
2022/05/05 05:42:54;;;;;;;5.50;4.20;;;11.90;99.90;;;;;;5067012;28;20255;-53
2022/05/05 05:45:22;;;;;;;6.40;5.80;;;11.90;99.90;;;;;;5066243;28;20292;-53
2022/05/05 05:47:49;;;;;;;4.07;3.87;;;12.00;99.90;;;;;;5067940;28;20227;-53
2022/05/05 05:50:16;;;;;;;5.43;4.97;;;12.10;99.90;;;;;;5070655;28;20236;-54
2022/05/05 05:52:43;;;;;;;4.80;4.33;;;12.10;99.90;;;;;;5067735;28;20219;-53
2022/05/05 05:55:11;;;;;;;4.63;4.40;;;12.20;99.90;;;;;;5067100;28;20267;-53
2022/05/05 05:57:39;;;;;;;5.00;4.53;;;12.30;99.90;;;;;;5068089;28;20811;-53
2022/05/05 06:00:07;;;;;;;5.07;3.70;;;12.40;99.90;;;;;;5068522;28;20762;-53
2022/05/05 06:05:18;;;;;;;3.77;3.47;;;12.50;99.90;;;;;;5068199;28;20681;-53
2022/05/05 06:07:45;;;;;;;4.23;3.83;;;12.50;99.90;;;;;;5065224;28;20712;-52
2022/05/05 06:10:14;;;;;;;5.70;3.67;;;12.50;99.90;;;;;;5070131;28;20224;-53
2022/05/05 06:12:41;;;;;;;3.90;3.60;;;12.50;99.90;;;;;;5073655;28;20659;-53
2022/05/05 06:15:11;;;;;;;4.25;3.95;;;12.70;99.90;;;;;;5067759;28;21005;-53
2022/05/05 06:17:39;;;;;;;3.70;3.50;;;12.80;99.90;;;;;;5072617;28;20204;-53
2022/05/05 06:20:07;;;;;;;2.97;2.77;;;12.80;99.90;;;;;;5075687;28;20231;-53
2022/05/05 06:22:35;;;;;;;4.13;3.80;;;12.90;99.90;;;;;;5072968;28;20249;-53
2022/05/05 06:25:02;;;;;;;4.30;3.90;;;12.80;99.90;;;;;;5070471;28;20611;-53
2022/05/05 06:27:30;;;;;;;4.57;4.27;;;12.90;99.90;;;;;;5068396;28;20211;-53
2022/05/05 06:29:57;;;;;;;2.93;2.83;;;12.90;99.90;;;;;;5072282;28;20740;-53
2022/05/05 06:32:24;;;;;;;3.93;3.60;;;13.00;99.90;;;;;;5069603;28;20221;-54
2022/05/05 06:34:51;;;;;;;4.30;3.07;;;13.20;99.90;;;;;;5067599;28;20247;-53
2022/05/05 06:37:18;;;;;;;4.00;3.80;;;13.30;99.90;;;;;;5069216;28;20264;-53
2022/05/05 06:39:45;;;;;;;3.70;3.50;;;13.50;99.90;;;;;;5072610;28;20213;-53
2022/05/05 06:42:12;;;;;;;4.10;3.77;;;13.60;99.90;;;;;;5070902;28;20201;-53
2022/05/05 06:44:40;;;;;;;3.80;3.60;;;13.70;99.90;;;;;;5072908;28;20197;-53
2022/05/05 06:47:07;;;;;;;3.60;3.27;;;13.80;99.90;;;;;;5072698;28;20200;-54
2022/05/05 06:49:34;;;;;;;3.23;3.03;;;13.80;99.90;;;;;;5072827;28;20225;-54
2022/05/05 06:52:01;;;;;;;4.33;3.83;;;14.00;99.90;;;;;;5073046;28;20224;-54
2022/05/05 06:54:28;;;;;;;3.67;3.37;;;14.00;99.90;;;;;;5071392;28;20251;-54
2022/05/05 06:56:56;;;;;;;3.23;3.13;;;14.10;99.90;;;;;;5073045;28;20204;-54
2022/05/05 06:59:24;;;;;;;5.77;3.40;;;14.20;99.90;;;;;;5071673;28;20205;-54
2022/05/05 07:02:00;;;;;;;3.37;3.17;;;14.30;99.90;;;;;;5072978;28;20279;-54
2022/05/05 07:07:13;;;;;;;3.40;3.30;;;14.70;99.90;;;;;;5071530;28;20208;-54
2022/05/05 07:12:26;;;;;;;3.07;2.97;;;15.10;99.90;;;;;;5071745;28;20232;-54
2022/05/05 07:14:53;;;;;;;3.47;3.27;;;15.20;99.90;;;;;;5071647;28;20744;-54
2022/05/05 07:17:23;;;;;;;4.33;4.00;;;15.20;99.90;;;;;;5071758;28;20608;-54
2022/05/05 07:19:50;;;;;;;3.90;3.60;;;15.20;99.90;;;;;;5089496;22;21644;-47
2022/05/05 07:22:17;;;;;;;3.57;3.00;;;15.20;99.90;;;;;;5042420;28;20190;-47
2022/05/05 07:24:44;;;;;;;3.30;3.10;;;15.30;99.90;;;;;;5048608;28;20193;-47
2022/05/05 07:27:11;;;;;;;3.57;2.83;;;15.50;99.90;;;;;;5046473;28;20198;-47
2022/05/05 07:29:38;;;;;;;3.73;3.27;;;15.70;99.90;;;;;;5033502;28;20194;-47
2022/05/05 07:32:06;;;;;;;4.73;3.90;;;16.10;99.90;;;;;;5032826;28;20222;-47
2022/05/05 07:34:35;;;;;;;4.20;3.90;;;16.40;99.90;;;;;;5033459;28;20202;-47
2022/05/05 07:37:02;;;;;;;3.30;3.20;;;16.50;99.90;;;;;;5035799;28;20198;-48
2022/05/05 07:39:29;;;;;;;3.43;3.03;;;17.10;99.90;;;;;;5046382;28;20206;-47
2022/05/05 07:41:56;;;;;;;3.27;3.17;;;17.50;99.90;;;;;;5032911;28;20206;-48
2022/05/05 07:44:23;;;;;;;3.70;3.50;;;17.90;99.90;;;;;;5033257;28;20203;-48
2022/05/05 07:46:50;;;;;;;5.00;4.60;;;18.20;99.90;;;;;;5032927;28;20194;-48
2022/05/05 07:49:18;;;;;;;4.40;4.10;;;18.50;99.90;;;;;;5040266;28;20206;-48
2022/05/05 07:51:50;;;;;;;4.67;4.03;;;18.40;99.90;;;;;;5051124;28;20271;-48
2022/05/05 07:57:01;;;;;;;4.93;4.50;;;18.70;99.90;;;;;;5038523;28;20938;-48
2022/05/05 07:59:28;;;;;;;4.90;4.50;;;19.10;99.90;;;;;;5033470;28;20202;-47
2022/05/05 08:01:55;;;;;;;5.20;4.77;;;19.30;99.90;;;;;;5032239;28;20236;-48
2022/05/05 08:04:22;;;;;;;4.17;3.97;;;19.50;99.90;;;;;;5032454;28;20225;-47
2022/05/05 08:06:50;;;;;;;4.53;4.23;;;20.10;99.90;;;;;;5043402;28;20251;-48
2022/05/05 08:09:17;;;;;;;5.40;5.10;;;20.30;99.90;;;;;;5050868;28;20618;-48
2022/05/05 08:11:44;;;;;;;4.10;3.90;;;20.60;99.90;;;;;;5034337;28;20309;-47
2022/05/05 08:14:12;;;;;;;4.10;3.90;;;21.30;99.90;;;;;;5033017;28;20194;-48
2022/05/05 08:16:39;;;;;;;4.67;4.37;;;22.00;99.90;;;;;;5049565;28;20198;-48
2022/05/05 08:19:07;;;;;;;4.00;3.90;;;22.20;99.90;;;;;;5050600;28;20236;-48
2022/05/05 08:21:34;;;;;;;5.43;4.97;;;22.70;99.90;;;;;;5049522;28;20232;-48
2022/05/05 08:29:31;;;;;;;4.10;3.80;;;24.20;99.90;;;;;;5041213;28;20582;-48
2022/05/05 08:31:58;;;;;;;4.30;3.97;;;24.30;99.90;;;;;;5034533;28;20214;-48
2022/05/05 08:34:25;;;;;;;4.47;4.17;;;24.50;99.90;;;;;;5032327;28;20224;-48
2022/05/05 08:36:52;;;;;;;4.73;4.47;;;24.70;99.90;;;;;;5032183;28;20202;-48
2022/05/05 08:39:20;;;;;;;4.33;4.00;;;24.40;99.90;;;;;;5032419;28;20205;-48
2022/05/05 08:41:48;;;;;;;4.10;3.90;;;24.40;99.90;;;;;;5050316;28;20210;-48
2022/05/05 08:44:15;;;;;;;4.77;4.47;;;24.30;99.90;;;;;;5045448;28;20711;-48
2022/05/05 08:46:47;;;;;;;4.57;4.37;;;23.80;99.90;;;;;;5033169;28;20198;-48
2022/05/05 08:49:14;;;;;;;4.47;4.33;;;22.80;99.90;;;;;;5032162;28;20202;-48
2022/05/05 08:51:45;;;;;;;5.27;4.97;;;22.30;99.90;;;;;;5031540;28;20260;-48
2022/05/05 08:54:16;;;;;;;4.60;4.40;;;21.90;99.90;;;;;;5040479;28;20198;-47
2022/05/05 08:56:49;;;;;;;8.43;5.13;;;21.70;99.90;;;;;;5037273;28;20228;-47
2022/05/05 08:59:16;;;;;;;5.13;4.83;;;21.60;99.90;;;;;;5038537;28;20286;-47
2022/05/05 09:01:45;;;;;;;5.53;5.23;;;21.30;99.90;;;;;;5038725;28;20210;-47
2022/05/05 09:04:13;;;;;;;6.23;5.83;;;21.00;99.90;;;;;;5034061;28;20562;-47
2022/05/05 09:06:47;;;;;;;6.10;5.47;;;20.60;99.90;;;;;;5030841;28;20199;-47
2022/05/05 09:09:24;;;;;;;6.93;4.97;;;20.50;99.90;;;;;;5031068;28;20624;-47
2022/05/05 09:12:11;;;;;;;6.83;6.43;;;20.60;99.90;;;;;;5047044;28;20691;-47
2022/05/05 09:14:41;;;;;;;6.20;5.70;;;20.60;99.90;;;;;;5040121;28;20293;-47
2022/05/05 09:17:10;;;;;;;7.07;6.43;;;20.50;99.90;;;;;;5034449;28;20296;-47
2022/05/05 09:19:39;;;;;;;7.03;6.63;;;20.20;99.90;;;;;;5032642;28;20195;-47
2022/05/05 09:22:07;;;;;;;6.20;5.70;;;20.10;99.90;;;;;;5032030;28;20191;-47
2022/05/05 09:24:40;;;;;;;6.83;6.23;;;20.40;99.90;;;;;;5030818;28;20214;-47
2022/05/05 09:27:25;;;;;;;7.17;6.50;;;21.00;99.90;;;;;;5030966;28;20195;-47
2022/05/05 09:30:09;;;;;;;8.07;7.57;;;21.20;99.90;;;;;;5030695;28;20214;-47
2022/05/05 09:32:37;;;;;;;7.97;7.27;;;21.30;99.90;;;;;;5047188;28;20217;-47
2022/05/05 09:35:08;;;;;;;7.07;6.67;;;21.50;99.90;;;;;;5049891;28;20206;-47
2022/05/05 09:37:36;;;;;;;14.17;9.73;;;21.10;99.90;;;;;;5050459;28;20214;-47
2022/05/05 09:40:06;;;;;;;8.00;7.50;;;21.40;99.90;;;;;;5053374;28;20217;-47
2022/05/05 09:42:42;;;;;;;8.70;7.83;;;21.10;99.90;;;;;;5054997;28;20194;-47
2022/05/05 09:45:19;;;;;;;7.87;7.27;;;21.30;99.90;;;;;;5054047;28;20229;-47
2022/05/05 09:47:51;;;;;;;37.03;14.60;;;21.40;99.90;;;;;;5046806;28;20552;-48
2022/05/05 09:50:20;;;;;;;8.87;8.17;;;21.60;99.90;;;;;;5054195;28;20217;-47
2022/05/05 09:58:22;;;;;;;10.03;9.27;;;20.40;99.90;;;;;;5046740;28;20251;-47
2022/05/05 10:00:58;;;;;;;10.23;9.33;;;19.70;99.90;;;;;;5043276;28;20254;-47
2022/05/05 10:06:19;;;;;;;8.70;7.97;;;19.40;99.90;;;;;;5047939;28;20209;-47
2022/05/05 10:08:50;;;;;;;8.77;7.90;;;19.60;99.90;;;;;;5052777;28;20617;-48
2022/05/05 10:11:19;;;;;;;9.33;8.70;;;19.90;99.90;;;;;;5033564;28;20214;-47
2022/05/05 10:13:48;;;;;;;8.87;8.03;;;19.90;99.90;;;;;;5051661;28;20228;-47
2022/05/05 10:16:18;;;;;;;9.60;8.80;;;19.20;99.90;;;;;;5039522;28;20264;-47
2022/05/05 10:18:46;;;;;;;8.20;7.70;;;19.00;99.90;;;;;;5040877;28;20558;-47
2022/05/05 10:21:20;;;;;;;9.73;9.03;;;19.10;99.90;;;;;;5033393;28;20231;-47
2022/05/05 10:23:57;;;;;;;9.37;8.70;;;18.90;99.90;;;;;;5033345;28;20198;-47
2022/05/05 10:26:25;;;;;;;9.57;8.83;;;18.70;99.90;;;;;;5049560;28;20578;-47
2022/05/05 10:28:53;;;;;;;11.73;9.87;;;18.60;99.90;;;;;;5052428;28;20622;-47
2022/05/05 10:31:45;;;;;;;9.30;8.40;;;18.10;99.90;;;;;;5050689;28;20229;-47
2022/05/05 10:34:18;;;;;;;10.47;9.50;;;17.80;99.90;;;;;;5039821;28;20230;-46
2022/05/05 10:37:03;;;;;;;9.33;8.63;;;17.90;99.90;;;;;;5052347;28;20675;-47
2022/05/05 10:39:45;;;;;;;10.70;9.80;;;18.10;99.90;;;;;;5042066;28;20247;-47
2022/05/05 10:42:16;;;;;;;11.63;10.67;;;18.30;99.90;;;;;;5033649;28;20245;-47
2022/05/05 10:45:13;;;;;;;11.17;10.27;;;18.40;99.90;;;;;;5033615;28;20734;-46
2022/05/05 10:48:19;;;;;;;10.83;10.03;;;18.50;99.90;;;;;;5033851;28;20205;-47
2022/05/05 10:50:53;;;;;;;10.43;9.67;;;18.80;99.90;;;;;;5045938;28;20213;-47
2022/05/05 10:53:39;;;;;;;10.38;9.57;;;19.00;99.90;;;;;;5047421;28;20452;-47
2022/05/05 10:56:22;;;;;;;10.70;9.87;;;18.80;99.90;;;;;;5052146;28;20209;-47
2022/05/05 10:59:04;;;;;;;9.67;8.97;;;18.50;99.90;;;;;;5050305;28;20263;-47
2022/05/05 11:02:01;;;;;;;9.07;8.47;;;18.70;99.90;;;;;;5052944;28;20233;-47
2022/05/05 11:04:34;;;;;;;9.10;8.50;;;18.70;99.90;;;;;;5047580;28;20255;-47
2022/05/05 11:07:23;;;;;;;10.53;9.83;;;18.50;99.90;;;;;;5051275;28;20205;-47
2022/05/05 11:09:50;;;;;;;10.07;9.13;;;18.50;99.90;;;;;;5044630;28;20244;-47
2022/05/05 11:12:19;;;;;;;9.83;9.07;;;18.50;99.90;;;;;;5052897;28;20630;-47
2022/05/05 11:23:32;;;;;;;9.93;9.13;;;19.20;99.90;;;;;;5046204;28;20731;-47
2022/05/05 11:26:00;;;;;;;9.83;9.03;;;19.30;99.90;;;;;;5050212;28;20281;-47
2022/05/05 11:28:29;;;;;;;8.37;7.87;;;19.40;99.90;;;;;;5052060;28;21189;-47
2022/05/05 11:30:57;;;;;;;9.73;9.07;;;19.10;99.90;;;;;;5052678;28;20304;-47
2022/05/05 11:33:25;;;;;;;10.67;7.43;;;19.20;99.90;;;;;;5052179;28;20225;-47
2022/05/05 11:36:01;;;;;;;7.10;6.60;;;19.20;99.90;;;;;;5051662;28;20625;-47
2022/05/05 11:38:29;;;;;;;7.73;7.23;;;19.00;99.90;;;;;;5052600;28;20568;-47
2022/05/05 11:41:06;;;;;;;7.53;6.87;;;19.10;99.90;;;;;;5049438;28;20249;-48
2022/05/05 11:46:21;;;;;;;6.17;5.70;;;19.60;99.90;;;;;;5045123;28;20231;-47
2022/05/05 11:48:56;;;;;;;6.47;6.07;;;19.90;99.90;;;;;;5051047;28;20202;-47
2022/05/05 11:51:26;;;;;;;6.30;5.80;;;20.00;99.90;;;;;;5052936;28;20229;-47
2022/05/05 11:54:05;;;;;;;6.67;6.27;;;19.80;99.90;;;;;;5051339;28;20226;-47
2022/05/05 11:56:32;;;;;;;6.87;6.33;;;19.50;99.90;;;;;;5052225;28;20201;-47
2022/05/05 12:02:04;;;;;;;5.67;5.17;;;19.30;99.90;;;;;;5052007;28;20201;-47
2022/05/05 12:04:34;;;;;;;4.47;4.23;;;19.40;99.90;;;;;;5052432;28;20267;-47
2022/05/05 12:07:02;;;;;;;4.23;3.93;;;19.60;99.90;;;;;;5034270;28;20245;-47
2022/05/05 12:09:29;;;;;;;4.20;4.10;;;19.50;99.90;;;;;;5050954;28;20213;-47
2022/05/05 12:11:56;;;;;;;4.67;4.43;;;19.60;99.90;;;;;;5052249;28;20252;-47
2022/05/05 12:14:24;;;;;;;3.37;3.27;;;19.60;99.90;;;;;;5052225;28;20279;-47
2022/05/05 12:16:52;;;;;;;3.37;3.17;;;19.80;99.90;;;;;;5052269;28;20212;-47
2022/05/05 12:19:21;;;;;;;3.50;3.40;;;19.90;99.90;;;;;;5052264;28;20569;-47
2022/05/05 12:21:54;;;;;;;4.13;3.93;;;20.00;99.90;;;;;;5051059;28;20226;-47
2022/05/05 12:24:23;;;;;;;4.30;3.90;;;19.90;99.90;;;;;;5050151;28;20209;-47
2022/05/05 12:26:51;;;;;;;3.97;3.50;;;19.70;99.90;;;;;;5046097;28;20226;-47
2022/05/05 12:29:20;;;;;;;4.53;4.23;;;19.80;99.90;;;;;;5052074;28;20292;-47
2022/05/05 12:31:55;;;;;;;3.53;3.43;;;19.90;99.90;;;;;;5037726;28;20219;-47
2022/05/05 12:34:25;;;;;;;4.03;3.73;;;19.60;99.90;;;;;;5042890;28;20235;-46
2022/05/05 12:39:57;;;;;;;4.63;4.23;;;19.10;99.90;;;;;;5087227;28;20583;-47
2022/05/05 12:42:25;;;;;;;3.77;3.13;;;19.50;99.90;;;;;;5068657;28;20189;-47
2022/05/05 12:44:52;;;;;;;3.43;3.27;;;19.60;99.90;;;;;;5067196;28;20227;-47
2022/05/05 12:47:26;;;;;;;3.87;3.67;;;19.70;99.90;;;;;;5063723;28;20197;-47
2022/05/05 12:49:53;;;;;;;5.60;5.30;;;19.90;99.90;;;;;;5061703;28;20274;-47
2022/05/05 13:00:52;;;;;;;5.50;5.20;;;19.80;99.90;;;;;;5048618;28;20221;-47
2022/05/05 13:03:21;;;;;;;7.40;6.90;;;19.50;99.90;;;;;;5048142;28;20271;-47
2022/05/05 13:05:48;;;;;;;7.73;6.03;;;19.40;99.90;;;;;;5065479;28;20197;-47
2022/05/05 13:08:15;;;;;;;5.80;5.50;;;19.40;99.90;;;;;;5049343;28;20917;-47
2022/05/05 13:10:45;;;;;;;5.80;5.60;;;19.10;99.90;;;;;;5053047;28;20221;-47
2022/05/05 13:13:13;;;;;;;6.30;5.90;;;19.20;99.90;;;;;;5062446;28;20663;-46
2022/05/05 13:15:40;;;;;;;5.23;4.93;;;18.90;99.90;;;;;;5068395;28;20205;-47
2022/05/05 13:18:07;;;;;;;7.47;6.77;;;18.90;99.90;;;;;;5066553;28;20198;-46
2022/05/05 13:20:34;;;;;;;6.43;6.17;;;18.70;99.90;;;;;;5086712;22;20234;-54
2022/05/05 13:23:02;;;;;;;8.73;7.87;;;18.80;99.90;;;;;;5042633;28;20202;-53
2022/05/05 13:25:29;;;;;;;7.77;7.17;;;18.60;99.90;;;;;;5042485;28;20194;-54
2022/05/05 13:27:57;;;;;;;8.73;8.03;;;18.60;99.90;;;;;;5047450;28;20229;-53
2022/05/05 13:30:24;;;;;;;8.67;8.03;;;18.60;99.90;;;;;;5044590;28;20283;-53
2022/05/05 13:32:51;;;;;;;8.37;7.70;;;18.40;99.90;;;;;;5046875;28;20244;-53
2022/05/05 13:35:18;;;;;;;8.47;7.90;;;18.30;99.90;;;;;;5047403;28;20198;-53
2022/05/05 13:37:46;;;;;;;8.47;7.97;;;18.20;99.90;;;;;;5046434;28;20202;-54
2022/05/05 13:40:13;;;;;;;8.87;8.17;;;18.20;99.90;;;;;;5046408;28;20261;-53
2022/05/05 13:42:40;;;;;;;10.10;9.30;;;18.20;99.90;;;;;;5046649;28;20202;-53
2022/05/05 13:45:09;;;;;;;8.63;7.93;;;18.20;99.90;;;;;;5047409;28;20198;-53
2022/05/05 13:47:36;;;;;;;9.60;8.80;;;18.30;99.90;;;;;;5047521;28;20202;-53
2022/05/05 13:50:04;;;;;;;10.07;9.13;;;18.30;99.90;;;;;;5037901;28;20683;-53
2022/05/05 13:52:31;;;;;;;8.80;8.13;;;18.30;99.90;;;;;;5032162;28;20257;-53
2022/05/05 13:54:58;;;;;;;9.63;8.83;;;18.40;99.90;;;;;;5033743;28;20206;-53